Latest Weather Observations for PWS F

IDT60801

Issued at 11:11 pm EST Monday 21 September 2020 (issued every 10 minutes, with the page automatically refreshed every 10 minutes)

About weather observations | Map of weather stations | Latest weather observations for TAS | Other Formats
Station Details ID: 250113 Name: TAS PARKS WILDLIFE PORTABLE F Lat: -41.60 Lon: 145.97 Height: 50.0 m

Portable automatic weather stations (PAWS) are operated by other organisations, such as Fire and Emergency Services, and are included here by agreement. Portable stations may be deployed to a location for a short period and their location may be subject to change without notice. Wind observations from these stations are provided from heights of either three (3) or ten (10) metres above ground level (AGL).

Data from the previous 72 hours. | See also: Recent months for locations in Tasmania
Date/Time
EST
Temp
°C
App
Temp
°C
Dew
Point
°C
Rel
Hum
%
Delta-T
°C
Wind Press
QNH
hPa
Press
MSL
hPa
Rain since
9am
mm
Dir  Spd
km/h
Gust
km/h
Spd
kts
Gust
kts
21/11:00pm 4.2 -2.9 3.8 97 0.2 NNW 30 39 16 21 998.7 - 0.4
21/10:50pm 4.2 -2.9 3.7 97 0.2 NNW 30 33 16 18 998.8 - 0.4
21/10:40pm 4.1 -1.8 3.7 97 0.2 NNW 24 30 13 16 999.1 - 0.2
21/10:30pm 4.0 -1.2 3.5 97 0.2 N 20 26 11 14 - - 0.2
21/10:20pm 4.0 -1.0 3.4 96 0.2 N 19 24 10 13 999.1 - 0.2
21/10:10pm 4.1 -1.9 3.1 93 0.4 NNW 24 28 13 15 999.1 - 0.2
21/10:00pm 4.1 -2.7 3.0 92 0.4 NNW 28 32 15 17 999.1 - 0.2
21/09:50pm 4.3 -3.9 2.9 91 0.6 NNW 35 43 19 23 999.2 - 0.2
21/09:40pm 4.6 -1.5 2.6 87 0.8 NNW 24 28 13 15 999.3 - 0.2
21/09:30pm 4.5 -1.6 2.5 87 0.8 NNW 24 32 13 17 999.4 - 0.2
21/09:20pm 4.4 -1.0 2.4 87 0.8 NNW 20 24 11 13 999.5 - 0.2
21/09:10pm 4.3 -1.1 2.5 88 0.7 NNW 20 22 11 12 999.5 - 0.2
21/09:00pm 4.2 -1.0 2.4 88 0.7 NW 19 22 10 12 999.4 - 0.2
21/08:50pm 4.1 -1.1 2.6 90 0.6 NW 19 22 10 12 999.6 - 0.2
21/08:40pm 3.9 -0.9 2.7 92 0.5 NW 17 19 9 10 999.8 - 0.2
21/08:30pm 3.9 -1.2 2.8 92 0.4 NW 19 20 10 11 - - 0.2
21/08:20pm 3.8 -1.3 2.9 94 0.4 NW 19 20 10 11 1000.0 - 0.2
21/08:10pm 3.8 -1.5 3.0 94 0.3 NW 20 22 11 12 1000.1 - 0.2
21/08:00pm 3.7 -2.0 3.1 96 0.2 NW 22 28 12 15 - - 0.2
21/07:50pm 3.7 -1.4 3.3 97 0.2 NW 19 20 10 11 999.8 - 0.2
21/07:40pm 3.7 -1.4 3.3 97 0.2 NW 19 22 10 12 1000.0 - 0.2
21/07:30pm 3.8 -1.4 3.4 97 0.2 NW 20 24 11 13 1000.0 - 0.2
21/07:20pm 3.9 -1.7 3.4 97 0.2 NW 22 24 12 13 999.8 - 0.2
21/07:10pm 4.0 -2.4 3.4 96 0.2 NW 26 32 14 17 - - 0.2
21/07:00pm 4.1 -1.9 3.5 96 0.2 NW 24 28 13 15 1000.0 - 0.2
21/06:50pm 4.1 -1.4 3.8 98 0.1 NW 22 26 12 14 - - 0.2
21/06:40pm 4.2 -1.7 3.7 97 0.2 NW 24 28 13 15 999.8 - 0.2
21/06:30pm 4.3 -2.0 3.7 96 0.2 NW 26 28 14 15 999.8 - 0.2
21/06:20pm 4.5 -1.4 3.7 95 0.3 NW 24 28 13 15 999.7 - 0.2
21/06:10pm 4.6 -0.5 4.0 96 0.3 NNW 20 22 11 12 999.7 - 0.2
21/06:00pm 4.8 -0.1 3.9 94 0.4 NW 19 22 10 12 999.8 - 0.2
21/05:50pm 5.1 0.0 4.1 93 0.4 NW 20 24 11 13 999.7 - 0.2
21/05:40pm 5.3 0.2 4.1 92 0.5 NW 20 24 11 13 999.7 - 0.2
21/05:30pm 5.6 0.5 4.0 89 0.7 NW 20 22 11 12 999.7 - 0.2
21/05:20pm 5.5 0.5 4.4 93 0.5 NW 20 28 11 15 999.7 - 0.2
21/05:10pm 5.6 -1.4 4.2 91 0.6 NW 30 33 16 18 999.6 - 0.2
21/05:00pm 5.3 -0.5 4.5 95 0.3 NW 24 30 13 16 999.6 - 0.2
21/04:50pm 5.3 -0.9 4.3 93 0.4 NW 26 32 14 17 999.6 - 0.2
21/04:40pm 5.1 -0.3 4.5 96 0.3 NW 22 26 12 14 999.5 - 0.2
21/04:30pm 5.3 -1.2 4.6 95 0.3 NW 28 35 15 19 999.6 - 0.2
21/04:20pm 5.0 -0.8 4.4 96 0.3 NW 24 30 13 16 999.6 - 0.2
21/04:10pm 4.9 -0.2 4.2 95 0.3 NW 20 26 11 14 999.5 - 0.2
21/04:00pm 5.1 0.0 4.2 94 0.4 NNW 20 26 11 14 999.4 - 0.2
21/03:50pm 5.2 0.0 3.8 91 0.6 NW 20 28 11 15 999.4 - 0.2
21/03:40pm 5.0 -1.6 4.0 93 0.4 NW 28 33 15 18 999.5 - 0.2
21/03:30pm 5.4 -1.2 4.2 92 0.5 NW 28 33 15 18 999.5 - 0.2
21/03:20pm 5.6 -0.7 3.9 89 0.7 NW 26 30 14 16 999.4 - 0.2
21/03:10pm 5.6 -1.6 4.8 95 0.3 NW 32 37 17 20 999.4 - 0.2
21/03:00pm 5.6 -1.9 4.2 91 0.6 NW 33 43 18 23 999.4 - 0.0
21/02:50pm 6.7 1.9 5.6 93 0.5 NW 20 24 11 13 999.5 - 0.0
21/02:40pm 6.2 -0.2 5.3 94 0.4 NNW 28 30 15 16 999.5 - 0.0
21/02:30pm 7.1 1.5 5.4 89 0.8 NNW 24 32 13 17 999.4 - 0.0
21/02:20pm 8.1 1.6 4.9 80 1.4 NW 28 33 15 18 999.3 - 0.0
21/02:10pm 7.6 2.3 5.1 84 1.1 NW 22 26 12 14 999.3 - 0.0
21/02:00pm 7.0 1.3 5.0 87 0.9 NW 24 35 13 19 999.4 - 0.0
21/01:50pm 7.0 0.6 5.0 87 0.9 NW 28 32 15 17 999.4 - 0.0
21/01:40pm 7.1 2.3 4.8 85 1.0 NW 19 26 10 14 999.5 - 0.0
21/01:30pm 7.3 2.5 5.4 88 0.8 NNW 20 28 11 15 999.5 - 0.0
21/01:20pm 6.7 1.0 5.0 89 0.7 NNW 24 32 13 17 999.5 - 0.0
21/01:10pm 6.9 1.3 5.3 89 0.7 NNW 24 28 13 15 999.7 - 0.0
21/01:00pm 7.7 1.5 4.3 79 1.5 NW 26 32 14 17 999.6 - 0.0
21/12:50pm 8.6 2.9 5.1 79 1.6 NNW 24 26 13 14 999.8 - 0.0
21/12:40pm 8.4 2.7 4.8 78 1.6 NNW 24 26 13 14 1000.0 - 0.0
21/12:30pm 8.5 2.4 5.0 78 1.6 NNW 26 35 14 19 1000.1 - 0.0
21/12:20pm 8.5 1.1 3.9 73 2.0 NW 32 35 17 19 1000.2 - 0.0
21/12:10pm 8.0 0.9 3.6 74 1.9 NW 30 39 16 21 1000.1 - 0.0
21/12:00pm 7.4 -0.6 4.0 79 1.5 NW 35 39 19 21 1000.4 - 0.0
21/11:50am 7.3 -0.2 4.3 81 1.3 NW 33 41 18 22 1000.3 - 0.0
21/11:40am 7.3 -0.5 4.7 83 1.1 NW 35 44 19 24 1000.5 - 0.0
21/11:30am 7.3 -0.2 4.5 82 1.2 NW 33 41 18 22 1000.5 - 0.0
21/11:20am 7.5 1.1 5.3 86 1.0 NNW 28 33 15 18 1000.4 - 0.0
21/11:10am 7.3 1.6 5.0 85 1.0 NNW 24 32 13 17 1000.7 - 0.0
21/11:00am 6.3 0.2 5.0 91 0.6 NW 26 32 14 17 1000.8 - 0.0
21/10:50am 6.8 0.6 4.3 84 1.1 NW 26 35 14 19 1000.7 - 0.0
21/10:40am 6.1 -0.1 4.1 87 0.9 NW 26 32 14 17 1000.9 - 0.0
21/10:30am 5.5 -1.9 3.8 89 0.7 NW 32 39 17 21 1000.9 - 0.0
21/10:20am 5.6 -1.8 3.8 88 0.8 NW 32 35 17 19 1000.7 - 0.0
21/10:10am 6.2 0.5 4.9 91 0.6 NW 24 35 13 19 1000.8 - 0.0
21/10:00am 5.2 -1.8 4.3 94 0.4 NW 30 32 16 17 1001.0 - 0.0
21/09:50am 4.9 -1.7 4.2 95 0.3 NW 28 33 15 18 1001.1 - 0.0
21/09:40am 5.0 -1.2 4.2 95 0.3 NW 26 35 14 19 1000.8 - 0.0
21/09:30am 5.1 -1.0 4.7 97 0.2 NW 26 35 14 19 1000.8 - 0.0
21/09:20am 4.8 -2.2 4.2 96 0.3 NW 30 41 16 22 1000.8 - 0.0
21/09:10am 4.9 -1.3 4.5 97 0.2 NW 26 33 14 18 1000.3 - 0.0
21/09:00am 4.8 -1.3 4.6 99 0.1 WNW 26 32 14 17 1000.3 - 12.6
21/08:50am 4.6 -1.2 4.3 98 0.1 WNW 24 30 13 16 1000.7 - 12.6
21/08:40am 4.3 -2.3 4.0 98 0.1 WNW 28 35 15 19 1000.4 - 12.6
21/08:30am 3.9 -3.2 3.7 99 0.1 NW 30 37 16 20 1000.4 - 12.6
21/08:20am 3.8 -3.8 3.7 99 0.0 NW 33 43 18 23 1000.7 - 12.6
21/08:10am 4.0 -4.0 4.0 100 0.0 NW 35 43 19 23 1000.9 - 12.6
21/08:00am 4.2 -3.7 4.1 99 0.0 NW 35 41 19 22 1000.5 - 12.4
21/07:50am 4.2 -3.3 4.2 100 0.0 NW 33 50 18 27 1000.5 - 12.4
21/07:40am 4.4 -3.9 4.4 100 0.0 NW 37 44 20 24 1000.7 - 12.0
21/07:30am 4.6 -2.3 4.6 100 0.0 NW 30 39 16 21 1000.9 - 11.2
21/07:20am 4.6 -2.9 4.6 100 0.0 WNW 33 39 18 21 1001.2 - 10.4
21/07:10am 4.5 -2.4 4.5 100 0.0 WNW 30 33 16 18 1000.5 - 10.0
21/07:00am 4.4 -2.9 4.4 100 0.0 WNW 32 39 17 21 1000.6 - 9.8
21/06:50am 4.4 -3.1 4.4 100 0.0 WNW 33 39 18 21 1000.8 - 9.6
21/06:40am 4.4 -3.9 4.4 100 0.0 WNW 37 41 20 22 1000.4 - 9.2
21/06:30am 4.5 -3.7 4.5 100 0.0 WNW 37 39 20 21 1000.4 - 8.6
21/06:20am 4.6 -2.9 4.6 100 0.0 WNW 33 37 18 20 1000.4 - 8.6
21/06:10am 4.8 -3.4 4.8 100 0.0 WNW 37 43 20 23 1000.3 - 8.6
21/06:00am 5.5 -3.3 5.5 100 0.0 WNW 41 50 22 27 1000.8 - 8.4
21/05:50am 6.7 -1.1 6.7 100 0.0 WNW 37 41 20 22 1000.4 - 8.2
21/05:40am 8.1 1.4 8.1 100 0.0 NW 33 39 18 21 1000.4 - 8.2
21/05:30am 8.4 2.0 8.4 100 0.0 NNW 32 35 17 19 1000.3 - 8.2
21/05:20am 8.6 0.9 8.6 100 0.0 NNW 39 44 21 24 1000.6 - 8.0
21/05:10am 8.7 2.1 8.7 100 0.0 NNW 33 37 18 20 1000.7 - 7.2
21/05:00am 8.8 1.1 8.8 100 0.0 N 39 43 21 23 1000.4 - 6.4
21/04:50am 8.9 2.0 8.9 100 0.0 N 35 39 19 21 1000.6 - 5.6
21/04:40am 8.9 1.6 8.9 100 0.0 N 37 43 20 23 1000.5 - 4.8
21/04:30am 9.0 1.8 9.0 100 0.0 NNW 37 48 20 26 1000.7 - 4.4
21/04:20am 9.1 0.2 9.1 100 0.0 NNW 46 54 25 29 1000.2 - 4.2
21/04:10am 9.2 1.3 9.2 100 0.0 NNW 41 52 22 28 1000.6 - 3.6
21/04:00am 9.2 0.9 9.2 100 0.0 NNW 43 50 23 27 1000.4 - 3.6
21/03:50am 9.2 0.7 9.2 100 0.0 NNW 44 56 24 30 1000.5 - 3.2
21/03:40am 9.1 2.6 9.1 100 0.0 N 33 41 18 22 1000.9 - 3.0
21/03:30am 9.1 2.8 9.1 100 0.0 N 32 41 17 22 1000.8 - 2.4
21/03:20am 9.1 3.2 9.1 100 0.0 N 30 35 16 19 1000.9 - 2.2
21/03:10am 9.0 3.1 9.0 100 0.0 N 30 33 16 18 1001.3 - 1.8
21/03:00am 9.1 3.2 9.1 100 0.0 N 30 37 16 20 1001.4 - 1.8
21/02:50am 9.1 3.2 9.1 100 0.0 N 30 33 16 18 1001.6 - 1.8
21/02:40am 9.0 3.8 9.0 100 0.0 N 26 28 14 15 1001.9 - 1.8
21/02:30am 9.1 4.0 9.1 100 0.0 N 26 33 14 18 1002.2 - 1.8
21/02:20am 8.9 4.9 8.9 100 0.0 N 20 26 11 14 1002.5 - 1.8
21/02:10am 8.9 4.9 8.9 100 0.0 N 20 26 11 14 1002.8 - 1.8
21/02:00am 8.9 4.5 8.9 100 0.0 N 22 32 12 17 1003.1 - 1.8
21/01:50am 8.8 3.2 8.8 100 0.0 N 28 32 15 17 1003.4 - 1.8
21/01:40am 8.8 4.0 8.8 100 0.0 N 24 30 13 16 1003.5 - 1.8
21/01:30am 8.7 4.8 8.7 100 0.0 N 19 24 10 13 1003.3 - 1.8
21/01:20am 8.8 4.0 8.8 100 0.0 N 24 30 13 16 1003.6 - 1.8
21/01:10am 8.8 3.6 8.8 100 0.0 N 26 39 14 21 1003.7 - 1.8
21/01:00am 8.8 2.3 8.8 100 0.0 N 33 43 18 23 1003.4 - 1.8
21/12:50am 8.7 2.1 8.7 100 0.0 N 33 39 18 21 1003.3 - 1.8
21/12:40am 8.7 2.7 8.7 100 0.0 N 30 35 16 19 1003.5 - 1.8
21/12:30am 8.7 2.1 8.7 100 0.0 N 33 37 18 20 1003.5 - 1.8
21/12:20am 8.7 2.7 8.7 100 0.0 NNW 30 35 16 19 1003.5 - 1.8
21/12:10am 8.6 2.2 8.6 100 0.0 NNW 32 39 17 21 1003.2 - 1.8
21/12:00am 8.6 3.0 8.6 100 0.0 N 28 35 15 19 1003.0 - 1.8
 
Date/Time
EST
Temp
°C
App
Temp
°C
Dew
Point
°C
Rel
Hum
%
Delta-T
°C
Wind Press
QNH
hPa
Press
MSL
hPa
Rain since
9am
mm
Dir  Spd
km/h
Gust
km/h
Spd
kts
Gust
kts
20/11:50pm 8.8 2.8 8.8 100 0.0 NNW 30 33 16 18 1003.4 - 1.8
20/11:40pm 8.8 3.2 8.8 100 0.0 NNW 28 37 15 20 1003.4 - 1.8
20/11:30pm 8.8 3.2 8.8 100 0.0 NNW 28 33 15 18 1003.6 - 1.8
20/11:20pm 8.8 2.8 8.8 100 0.0 NNW 30 35 16 19 1003.6 - 1.8
20/11:10pm 8.8 2.8 8.8 100 0.0 NNW 30 33 16 18 1003.7 - 1.8
20/11:00pm 8.8 2.8 8.8 100 0.0 NNW 30 35 16 19 1003.8 - 1.8
20/10:50pm 8.8 2.8 8.8 100 0.0 NNW 30 35 16 19 1004.0 - 1.8
20/10:40pm 8.8 2.8 8.8 100 0.0 NNW 30 41 16 22 1004.0 - 1.8
20/10:30pm 8.8 3.2 8.8 100 0.0 NNW 28 32 15 17 1004.2 - 1.8
20/10:20pm 8.7 2.3 8.7 100 0.0 NNW 32 39 17 21 1004.2 - 1.8
20/10:10pm 8.6 2.6 8.6 100 0.0 NNW 30 33 16 18 1004.1 - 1.8
20/10:00pm 8.6 3.3 8.6 100 0.0 NNW 26 33 14 18 1004.3 - 1.8
20/09:50pm 8.5 2.8 8.5 100 0.0 NNW 28 32 15 17 1004.4 - 1.8
20/09:40pm 8.4 2.7 8.4 100 0.0 NNW 28 33 15 18 1004.3 - 1.8
20/09:30pm 8.3 3.4 8.3 100 0.0 NW 24 30 13 16 1004.4 - 1.8
20/09:20pm 8.2 3.6 8.2 100 0.0 NW 22 28 12 15 1004.2 - 1.8
20/09:10pm 8.2 3.2 8.2 100 0.0 NW 24 28 13 15 1004.3 - 1.8
20/09:00pm 8.2 3.2 8.2 100 0.0 NW 24 28 13 15 1004.3 - 1.8
20/08:50pm 8.3 3.4 8.3 100 0.0 NW 24 28 13 15 1004.3 - 1.8
20/08:40pm 8.3 2.6 8.3 100 0.0 NW 28 32 15 17 1004.3 - 1.8
20/08:30pm 8.4 2.3 8.4 100 0.0 NW 30 39 16 21 1004.2 - 1.8
20/08:20pm 8.5 2.5 8.5 100 0.0 NW 30 33 16 18 1004.2 - 1.8
20/08:10pm 8.5 2.5 8.5 100 0.0 NNW 30 33 16 18 1004.1 - 1.8
20/08:00pm 8.5 3.2 8.5 100 0.0 NNW 26 28 14 15 1004.0 - 1.6
20/07:50pm 8.5 4.0 8.5 100 0.0 NNW 22 28 12 15 1004.0 - 1.6
20/07:40pm 8.5 4.0 8.5 100 0.0 NNW 22 28 12 15 1003.8 - 1.6
20/07:30pm 8.5 3.6 8.5 100 0.0 NNW 24 26 13 14 1003.7 - 1.6
20/07:20pm 8.5 3.6 8.5 100 0.0 NNW 24 28 13 15 1003.6 - 1.4
20/07:10pm 8.5 4.0 8.5 100 0.0 NNW 22 26 12 14 1003.6 - 1.4
20/07:00pm 8.5 3.6 8.5 100 0.0 NNW 24 28 13 15 1003.4 - 1.2
20/06:50pm 8.4 3.5 8.4 100 0.0 NNW 24 28 13 15 1003.3 - 1.2
20/06:40pm 8.4 3.5 8.4 100 0.0 NNW 24 28 13 15 1003.2 - 1.2
20/06:30pm 8.3 2.6 8.3 100 0.0 NNW 28 35 15 19 1003.1 - 1.2
20/06:20pm 8.3 3.0 8.3 100 0.0 N 26 32 14 17 1003.0 - 1.2
20/06:10pm 8.3 3.0 8.3 100 0.0 N 26 30 14 16 1003.0 - 1.2
20/06:00pm 8.3 3.0 8.3 100 0.0 NNW 26 30 14 16 1003.1 - 1.2
20/05:50pm 8.2 3.2 8.2 100 0.0 NNW 24 32 13 17 1003.0 - 1.2
20/05:40pm 8.2 2.1 8.2 100 0.0 NNW 30 35 16 19 1003.1 - 1.2
20/05:30pm 8.1 2.3 8.1 100 0.0 NNW 28 35 15 19 1003.1 - 1.2
20/05:20pm 8.1 2.7 8.1 100 0.0 NNW 26 30 14 16 1003.2 - 1.2
20/05:10pm 8.1 2.3 8.1 100 0.0 NNW 28 33 15 18 1003.1 - 1.2
20/05:00pm 8.1 1.6 8.1 100 0.0 NNW 32 35 17 19 1003.1 - 1.2
20/04:50pm 8.3 2.2 8.3 100 0.0 N 30 35 16 19 1003.0 - 1.2
20/04:40pm 8.3 1.3 8.3 100 0.0 N 35 43 19 23 1002.8 - 1.2
20/04:30pm 8.4 1.0 8.4 100 0.0 N 37 41 20 22 1002.8 - 1.2
20/04:20pm 8.5 1.5 8.5 100 0.0 NNW 35 41 19 22 1002.7 - 1.2
20/04:10pm 8.6 0.9 8.6 100 0.0 NNW 39 44 21 24 1002.9 - 1.2
20/04:00pm 8.7 1.8 8.7 100 0.0 N 35 44 19 24 1002.9 - 1.2
20/03:50pm 8.8 2.3 8.8 100 0.0 N 33 35 18 19 1003.1 - 1.2
20/03:40pm 8.8 1.5 8.8 100 0.0 N 37 43 20 23 1003.2 - 1.2
20/03:30pm 9.0 2.7 9.0 100 0.0 NNW 32 41 17 22 1003.2 - 1.2
20/03:20pm 9.0 2.5 9.0 100 0.0 N 33 44 18 24 1003.2 - 1.2
20/03:10pm 9.1 2.8 9.1 100 0.0 N 32 43 17 23 1003.6 - 1.2
20/03:00pm 9.1 2.3 9.1 100 0.0 N 35 44 19 24 1003.3 - 1.2
20/02:50pm 9.1 3.2 9.1 100 0.0 N 30 37 16 20 1003.7 - 1.2
20/02:40pm 9.1 4.4 9.1 100 0.0 N 24 28 13 15 1003.7 - 1.2
20/02:30pm 9.0 4.6 9.0 100 0.0 N 22 30 12 16 1003.8 - 1.2
20/02:20pm 9.0 4.2 9.0 100 0.0 NNE 24 28 13 15 1003.8 - 1.0
20/02:10pm 9.0 4.2 9.0 100 0.0 NNE 24 33 13 18 1003.9 - 1.0
20/02:00pm 9.1 4.4 9.1 100 0.0 N 24 30 13 16 1004.0 - 1.0
20/01:50pm 9.1 4.4 9.1 100 0.0 NNE 24 30 13 16 1004.1 - 0.8
20/01:40pm 9.2 4.5 9.2 100 0.0 NNE 24 30 13 16 1004.2 - 0.8
20/01:30pm 9.3 5.0 9.3 100 0.0 NNE 22 32 12 17 1004.3 - 0.8
20/01:20pm 9.3 4.6 9.3 100 0.0 NE 24 28 13 15 1004.3 - 0.8
20/01:10pm 9.3 4.6 9.3 100 0.0 NE 24 26 13 14 1004.6 - 0.8
20/01:00pm 9.3 5.4 9.3 100 0.0 NE 20 28 11 15 1004.6 - 0.8
20/12:50pm 9.3 4.6 9.3 100 0.0 NE 24 28 13 15 1004.9 - 0.8
20/12:40pm 9.3 4.6 9.3 100 0.0 NE 24 30 13 16 1004.9 - 0.8
20/12:30pm 9.3 3.5 9.3 100 0.0 NE 30 33 16 18 1005.1 - 0.8
20/12:20pm 9.3 3.5 9.3 100 0.0 NE 30 33 16 18 1005.1 - 0.8
20/12:10pm 9.3 3.5 9.3 100 0.0 NE 30 35 16 19 1005.3 - 0.6
20/12:00pm 9.3 3.8 9.3 100 0.0 NE 28 32 15 17 1005.6 - 0.6
20/11:50am 9.4 4.4 9.4 100 0.0 NE 26 30 14 16 1005.7 - 0.4
20/11:40am 9.4 3.6 9.4 100 0.0 NE 30 33 16 18 1005.8 - 0.4
20/11:30am 9.5 4.1 9.5 100 0.0 NE 28 33 15 18 1005.8 - 0.4
20/11:20am 9.6 4.2 9.6 100 0.0 NE 28 35 15 19 1006.0 - 0.4
20/11:10am 9.7 5.1 9.7 100 0.0 ENE 24 28 13 15 1006.2 - 0.4
20/11:00am 9.6 5.4 9.6 100 0.0 ENE 22 28 12 15 1006.4 - 0.4
20/10:50am 9.5 4.5 9.5 100 0.0 ENE 26 32 14 17 1006.6 - 0.4
20/10:40am 9.4 4.0 9.4 100 0.0 ENE 28 32 15 17 1006.6 - 0.4
20/10:30am 9.2 5.2 9.2 100 0.0 ENE 20 28 11 15 1006.9 - 0.4
20/10:20am 9.0 5.0 9.0 100 0.0 ENE 20 26 11 14 1007.1 - 0.4
20/10:10am 9.0 5.0 9.0 100 0.0 ENE 20 28 11 15 1007.3 - 0.4
20/10:00am 8.8 5.3 8.8 100 0.0 ENE 17 20 9 11 1007.4 - 0.4
20/09:50am 8.8 4.7 8.8 100 0.0 E 20 24 11 13 1007.5 - 0.4
20/09:40am 8.6 4.1 8.6 100 0.0 E 22 24 12 13 1007.8 - 0.2
20/09:30am 8.6 3.3 8.6 100 0.0 E 26 28 14 15 1007.8 - 0.2
20/09:20am 8.6 3.3 8.6 100 0.0 ENE 26 30 14 16 1008.0 - 0.2
20/09:10am 8.6 2.6 8.6 100 0.0 E 30 32 16 17 1008.1 - 0.0
20/09:00am 8.5 2.1 8.5 100 0.0 E 32 33 17 18 1008.1 - 3.2
20/08:50am 8.4 2.3 8.4 100 0.0 E 30 32 16 17 1008.2 - 3.2
20/08:40am 8.3 2.2 8.3 100 0.0 E 30 33 16 18 1008.3 - 3.2
20/08:30am 8.1 2.0 8.1 100 0.0 E 30 32 16 17 1008.6 - 3.2
20/08:20am 8.0 2.2 8.0 100 0.0 E 28 30 15 16 1008.7 - 3.2
20/08:10am 7.9 2.1 7.9 100 0.0 E 28 32 15 17 1008.7 - 3.2
20/08:00am 7.8 2.0 7.8 100 0.0 E 28 30 15 16 1008.8 - 3.0
20/07:50am 7.8 2.4 7.8 100 0.0 E 26 28 14 15 1009.0 - 3.0
20/07:40am 7.8 2.0 7.8 100 0.0 E 28 30 15 16 1009.1 - 3.0
20/07:30am 7.7 1.8 7.7 100 0.0 E 28 30 15 16 1009.1 - 3.0
20/07:20am 7.7 2.2 7.7 100 0.0 E 26 28 14 15 1009.1 - 3.0
20/07:10am 7.7 2.2 7.7 100 0.0 E 26 28 14 15 1009.1 - 3.0
20/07:00am 7.7 2.2 7.7 100 0.0 E 26 28 14 15 1009.1 - 3.0
20/06:50am 7.6 2.5 7.6 100 0.0 E 24 26 13 14 1009.2 - 3.0
20/06:40am 7.6 2.1 7.6 100 0.0 E 26 30 14 16 1009.2 - 3.0
20/06:30am 7.6 1.7 7.6 100 0.0 E 28 32 15 17 1009.2 - 3.0
20/06:20am 7.7 2.6 7.7 100 0.0 E 24 26 13 14 1009.3 - 3.0
20/06:10am 7.8 3.5 7.8 100 0.0 E 20 22 11 12 1009.5 - 3.0
20/06:00am 7.9 4.2 7.9 100 0.0 E 17 19 9 10 1009.8 - 3.0
20/05:50am 7.9 5.3 7.8 99 0.0 E 11 15 6 8 1010.0 - 3.0
20/05:40am 7.8 4.8 7.8 100 0.0 ENE 13 15 7 8 1010.2 - 3.0
20/05:30am 7.8 4.4 7.8 100 0.0 ENE 15 17 8 9 1010.4 - 3.0
20/05:20am 7.8 4.1 7.8 100 0.0 NE 17 19 9 10 1010.7 - 3.0
20/05:10am 7.8 3.7 7.8 100 0.0 ENE 19 20 10 11 1010.7 - 3.0
20/05:00am 7.7 4.3 7.6 99 0.0 NE 15 19 8 10 1011.0 - 3.0
20/04:50am 7.5 4.8 7.5 100 0.0 E 11 13 6 7 1011.1 - 3.0
20/04:40am 7.5 4.1 7.5 100 0.0 ENE 15 22 8 12 1011.2 - 3.0
20/04:30am 7.4 3.2 7.4 100 0.0 ENE 19 22 10 12 1011.2 - 3.0
20/04:20am 7.4 3.2 7.4 100 0.0 ENE 19 22 10 12 1011.1 - 3.0
20/04:10am 7.4 3.6 7.4 100 0.0 E 17 20 9 11 1011.1 - 3.0
20/04:00am 7.4 4.3 7.4 100 0.0 E 13 15 7 8 1011.3 - 3.0
20/03:50am 7.5 3.7 7.5 100 0.0 E 17 19 9 10 1011.5 - 3.0
20/03:40am 7.5 3.3 7.5 100 0.0 E 19 20 10 11 1011.8 - 3.0
20/03:30am 7.5 3.1 7.5 100 0.0 E 20 22 11 12 1012.0 - 3.0
20/03:20am 7.5 2.4 7.5 100 0.0 E 24 28 13 15 1012.1 - 3.0
20/03:10am 7.5 2.0 7.5 100 0.0 E 26 30 14 16 1012.3 - 3.0
20/03:00am 7.5 2.0 7.5 100 0.0 E 26 30 14 16 1012.5 - 3.0
20/02:50am 7.5 1.2 7.5 100 0.0 E 30 32 16 17 1012.8 - 3.0
20/02:40am 7.5 2.4 7.5 100 0.0 E 24 28 13 15 1013.1 - 3.0
20/02:30am 7.5 2.0 7.5 100 0.0 E 26 30 14 16 1013.1 - 3.0
20/02:20am 7.6 1.7 7.6 100 0.0 E 28 32 15 17 1013.3 - 3.0
20/02:10am 7.6 1.7 7.6 100 0.0 E 28 30 15 16 1013.6 - 3.0
20/02:00am 7.6 2.1 7.6 100 0.0 E 26 32 14 17 1013.8 - 3.0
20/01:50am 7.6 2.9 7.6 100 0.0 E 22 24 12 13 1014.3 - 3.0
20/01:40am 7.5 3.1 7.5 100 0.0 E 20 24 11 13 1014.6 - 3.0
20/01:30am 7.6 3.8 7.5 99 0.0 E 17 20 9 11 1015.0 - 3.0
20/01:20am 7.6 3.8 7.6 100 0.0 E 17 19 9 10 1015.0 - 2.8
20/01:10am 7.5 3.1 7.5 100 0.0 E 20 22 11 12 1015.1 - 2.8
20/01:00am 7.5 2.4 7.5 100 0.0 E 24 26 13 14 1015.1 - 2.8
20/12:50am 7.5 2.7 7.5 100 0.0 E 22 24 12 13 1015.1 - 2.8
20/12:40am 7.5 3.1 7.5 100 0.0 E 20 22 11 12 1015.5 - 2.8
20/12:30am 7.5 2.4 7.5 100 0.0 E 24 26 13 14 1015.3 - 2.8
20/12:20am 7.5 2.7 7.5 100 0.0 E 22 22 12 12 1015.5 - 2.8
20/12:10am 7.5 2.7 7.5 100 0.0 E 22 24 12 13 1015.6 - 2.8
20/12:00am 7.5 3.1 7.5 100 0.0 E 20 22 11 12 1015.8 - 2.8
 
Date/Time
EST
Temp
°C
App
Temp
°C
Dew
Point
°C
Rel
Hum
%
Delta-T
°C
Wind Press
QNH
hPa
Press
MSL
hPa
Rain since
9am
mm
Dir  Spd
km/h
Gust
km/h
Spd
kts
Gust
kts
19/11:50pm 7.5 2.0 7.5 100 0.0 E 26 30 14 16 1015.8 - 2.8
19/11:40pm 7.5 1.6 7.5 100 0.0 E 28 30 15 16 1015.6 - 2.8
19/11:30pm 7.5 2.0 7.5 100 0.0 E 26 28 14 15 1015.9 - 2.8
19/11:20pm 7.5 2.4 7.5 100 0.0 E 24 28 13 15 1016.1 - 2.8
19/11:10pm 7.5 2.4 7.5 100 0.0 E 24 26 13 14 1016.4 - 2.8
19/11:00pm 7.4 2.2 7.4 100 0.0 E 24 28 13 15 1016.5 - 2.6
19/10:50pm 7.4 1.9 7.4 100 0.0 E 26 28 14 15 1016.5 - 2.6
19/10:40pm 7.4 1.9 7.4 100 0.0 E 26 28 14 15 1016.6 - 2.6
19/10:30pm 7.4 2.2 7.4 100 0.0 E 24 30 13 16 1016.9 - 2.6
19/10:20pm 7.5 2.0 7.4 99 0.0 E 26 28 14 15 1016.9 - 2.6
19/10:10pm 7.4 1.5 7.4 100 0.0 E 28 30 15 16 1016.9 - 2.6
19/10:00pm 7.4 2.2 7.4 100 0.0 E 24 28 13 15 1017.0 - 2.6
19/09:50pm 7.4 1.9 7.4 100 0.0 E 26 28 14 15 1017.2 - 2.4
19/09:40pm 7.4 2.2 7.4 100 0.0 E 24 26 13 14 1017.6 - 2.4
19/09:30pm 7.4 2.2 7.4 100 0.0 E 24 26 13 14 1017.7 - 2.4
19/09:20pm 7.4 1.9 7.4 100 0.0 E 26 28 14 15 1017.8 - 2.4
19/09:10pm 7.3 1.4 7.3 100 0.0 E 28 32 15 17 1017.7 - 2.4
19/09:00pm 7.3 1.4 7.3 100 0.0 E 28 32 15 17 1017.7 - 2.4
19/08:50pm 7.3 2.1 7.3 100 0.0 E 24 26 13 14 1017.9 - 2.2
19/08:40pm 7.3 2.1 7.3 100 0.0 E 24 28 13 15 1018.1 - 2.2
19/08:30pm 7.3 1.0 7.3 100 0.0 E 30 32 16 17 1018.2 - 2.2
19/08:20pm 7.3 1.7 7.3 100 0.0 E 26 28 14 15 1018.2 - 2.2
19/08:10pm 7.3 1.4 7.3 100 0.0 E 28 32 15 17 1018.1 - 2.2
19/08:00pm 7.2 0.9 7.2 100 0.0 E 30 33 16 18 1018.2 - 2.2
19/07:50pm 7.3 1.4 7.3 100 0.0 E 28 30 15 16 1018.0 - 2.2
19/07:40pm 7.3 1.4 7.3 100 0.0 E 28 30 15 16 1018.0 - 2.2
19/07:30pm 7.3 1.4 7.3 100 0.0 E 28 32 15 17 1018.0 - 2.2
19/07:20pm 7.4 1.1 7.4 100 0.0 E 30 32 16 17 1018.0 - 2.0
19/07:10pm 7.4 1.1 7.4 100 0.0 E 30 33 16 18 1018.1 - 2.0
19/07:00pm 7.4 1.5 7.4 100 0.0 E 28 30 15 16 1018.1 - 2.0
19/06:50pm 7.4 1.5 7.4 100 0.0 E 28 30 15 16 1018.1 - 2.0
19/06:40pm 7.4 1.5 7.4 100 0.0 E 28 30 15 16 1018.2 - 2.0
19/06:30pm 7.4 1.5 7.4 100 0.0 E 28 30 15 16 1018.1 - 2.0
19/06:20pm 7.4 1.5 7.4 100 0.0 E 28 30 15 16 1018.3 - 2.0
19/06:10pm 7.4 1.9 7.4 100 0.0 E 26 30 14 16 1018.3 - 2.0
19/06:00pm 7.4 2.2 7.4 100 0.0 E 24 26 13 14 1018.6 - 2.0
19/05:50pm 7.5 2.4 7.5 100 0.0 E 24 28 13 15 1018.5 - 1.8
19/05:40pm 7.6 2.5 7.5 99 0.0 E 24 28 13 15 1018.6 - 1.8
19/05:30pm 7.6 2.9 7.6 100 0.0 E 22 24 12 13 1018.7 - 1.8
19/05:20pm 7.6 2.5 7.6 100 0.0 E 24 26 13 14 1018.8 - 1.8
19/05:10pm 7.6 2.9 7.6 100 0.0 E 22 24 12 13 1018.9 - 1.8
19/05:00pm 7.7 2.6 7.7 100 0.0 E 24 26 13 14 1018.8 - 1.8
19/04:50pm 7.8 3.1 7.8 100 0.0 E 22 22 12 12 1018.9 - 1.8
19/04:40pm 7.9 3.6 7.9 100 0.0 E 20 24 11 13 1019.0 - 1.6
19/04:30pm 7.9 3.2 7.9 100 0.0 E 22 24 12 13 1019.2 - 1.6
19/04:20pm 7.9 3.6 7.9 100 0.0 E 20 24 11 13 1019.2 - 1.6
19/04:10pm 8.1 3.5 8.1 100 0.0 E 22 26 12 14 1019.5 - 1.6
19/04:00pm 8.1 3.9 8.1 100 0.0 E 20 24 11 13 1019.6 - 1.6
19/03:50pm 8.1 3.9 8.1 100 0.0 E 20 22 11 12 1019.9 - 1.6
19/03:40pm 8.1 3.5 8.1 100 0.0 E 22 24 12 13 1020.0 - 1.6
19/03:30pm 8.2 4.0 8.2 100 0.0 E 20 22 11 12 1019.9 - 1.4
19/03:20pm 8.2 4.2 8.2 100 0.0 E 19 22 10 12 1020.2 - 1.4
19/03:10pm 8.2 3.6 8.2 100 0.0 E 22 22 12 12 1020.3 - 1.4
19/03:00pm 8.4 4.2 8.4 100 0.0 E 20 24 11 13 1020.3 - 1.2
19/02:50pm 8.3 4.1 8.3 100 0.0 ENE 20 24 11 13 1020.3 - 1.2
19/02:40pm 8.3 4.3 8.3 100 0.0 E 19 22 10 12 1020.5 - 1.2
19/02:30pm 8.4 4.8 8.4 100 0.0 ENE 17 20 9 11 1020.6 - 1.2
19/02:20pm 8.3 4.7 8.3 100 0.0 ENE 17 22 9 12 1020.8 - 1.2
19/02:10pm 8.2 4.6 8.2 100 0.0 E 17 20 9 11 1020.7 - 1.2
19/02:00pm 8.1 4.4 8.1 100 0.0 ENE 17 17 9 9 1020.9 - 1.2
19/01:50pm 8.2 4.9 8.2 100 0.0 E 15 19 8 10 1021.1 - 1.2
19/01:40pm 8.2 4.9 8.2 100 0.0 ENE 15 17 8 9 1021.1 - 1.0
19/01:30pm 8.4 4.8 8.4 100 0.0 E 17 20 9 11 1021.0 - 1.0
19/01:20pm 8.3 4.7 8.3 100 0.0 E 17 19 9 10 1021.2 - 1.0
19/01:10pm 8.3 4.7 8.2 99 0.0 E 17 19 9 10 1021.2 - 1.0
19/01:00pm 8.2 4.2 8.2 100 0.0 E 19 19 10 10 1021.4 - 1.0
19/12:50pm 8.2 4.2 8.2 100 0.0 E 19 20 10 11 1021.7 - 0.8
19/12:40pm 8.3 4.3 8.3 100 0.0 E 19 22 10 12 1021.9 - 0.8
19/12:30pm 8.3 4.3 8.3 100 0.0 E 19 20 10 11 1021.9 - 0.8
19/12:20pm 7.8 4.1 7.8 100 0.0 E 17 20 9 11 1022.2 - 0.8
19/12:10pm 7.8 4.1 7.8 100 0.0 E 17 19 9 10 1022.4 - 0.8
19/12:00pm 7.8 3.7 7.8 100 0.0 E 19 20 10 11 1022.6 - 0.8
19/11:50am 8.0 4.3 8.0 100 0.0 E 17 19 9 10 1022.7 - 0.8
19/11:40am 7.6 3.8 7.6 100 0.0 E 17 20 9 11 1022.9 - 0.6
19/11:30am 7.6 3.8 7.6 100 0.0 E 17 20 9 11 1023.0 - 0.6
19/11:20am 7.6 3.4 7.5 99 0.0 E 19 20 10 11 1023.0 - 0.6
19/11:10am 7.3 3.1 7.3 100 0.0 ENE 19 20 10 11 1023.0 - 0.6
19/11:00am 7.3 2.9 7.3 100 0.0 ENE 20 24 11 13 1023.1 - 0.6
19/10:50am 7.1 2.6 7.1 100 0.0 ENE 20 22 11 12 1023.2 - 0.6
19/10:40am 6.8 2.3 6.8 100 0.0 ENE 20 22 11 12 1023.4 - 0.4
19/10:30am 6.5 2.1 6.5 100 0.0 E 19 22 10 12 1023.6 - 0.4
19/10:20am 6.4 2.0 6.4 100 0.0 E 19 20 10 11 1023.6 - 0.4
19/10:10am 6.1 1.4 6.1 100 0.0 E 20 22 11 12 1023.7 - 0.4
19/10:00am 6.0 1.3 6.0 100 0.0 E 20 22 11 12 1023.7 - 0.4
19/09:50am 5.8 0.7 5.8 100 0.0 E 22 22 12 12 1023.8 - 0.4
19/09:40am 5.7 0.5 5.7 100 0.0 E 22 24 12 13 1023.8 - 0.2
19/09:30am 5.6 0.4 5.5 99 0.0 E 22 26 12 14 1023.8 - 0.2
19/09:20am 5.4 -0.2 5.4 100 0.0 E 24 26 13 14 1023.9 - 0.2
19/09:10am 5.2 -0.4 5.2 100 0.0 E 24 26 13 14 1023.9 - 0.0
19/09:00am 5.1 -0.2 5.1 100 0.0 E 22 26 12 14 1023.9 - 2.0
19/08:50am 5.0 -0.3 5.0 100 0.0 E 22 26 12 14 1024.0 - 2.0
19/08:40am 4.9 -0.8 4.9 100 0.0 E 24 26 13 14 1024.0 - 2.0
19/08:30am 4.7 -1.0 4.7 100 0.0 E 24 26 13 14 1024.1 - 2.0
19/08:20am 4.5 -2.0 4.5 100 0.0 E 28 30 15 16 1024.1 - 1.8
19/08:10am 4.4 -2.2 4.4 100 0.0 E 28 30 15 16 1024.0 - 1.8
19/08:00am 4.3 -2.3 4.3 100 0.0 E 28 30 15 16 1023.9 - 1.8
19/07:50am 4.2 -2.4 4.2 100 0.0 E 28 32 15 17 1024.0 - 1.6
19/07:40am 4.1 -2.5 4.1 100 0.0 E 28 30 15 16 1024.0 - 1.6
19/07:30am 4.1 -2.1 4.1 100 0.0 E 26 28 14 15 1024.0 - 1.6
19/07:20am 3.9 -2.8 3.9 100 0.0 E 28 30 15 16 1024.1 - 1.4
19/07:10am 3.9 -2.4 3.9 100 0.0 E 26 30 14 16 1024.2 - 1.4
19/07:00am 3.8 -2.9 3.8 100 0.0 E 28 30 15 16 1024.2 - 1.2
19/06:50am 3.8 -2.9 3.8 100 0.0 E 28 30 15 16 1024.3 - 1.2
19/06:40am 3.7 -3.4 3.7 100 0.0 E 30 32 16 17 1024.2 - 1.2
19/06:30am 3.6 -3.1 3.6 100 0.0 E 28 32 15 17 1023.9 - 1.0
19/06:20am 3.5 -3.2 3.5 100 0.0 E 28 32 15 17 1023.9 - 1.0
19/06:10am 3.5 -3.6 3.5 100 0.0 E 30 33 16 18 1023.8 - 1.0
19/06:00am 3.4 -3.7 3.4 100 0.0 E 30 33 16 18 1023.9 - 0.8
19/05:50am 3.3 -4.2 3.3 100 0.0 E 32 35 17 19 1023.9 - 0.8
19/05:40am 3.3 -4.2 3.3 100 0.0 E 32 33 17 18 1023.9 - 0.6
19/05:30am 3.2 -4.0 3.2 100 0.0 E 30 32 16 17 1024.0 - 0.6
19/05:20am 3.1 -4.1 3.1 100 0.0 E 30 32 16 17 1024.0 - 0.6
19/05:10am 3.1 -4.1 3.1 100 0.0 E 30 33 16 18 1024.1 - 0.6
19/05:00am 3.0 -4.2 3.0 100 0.0 E 30 35 16 19 1024.3 - 0.6
19/04:50am 2.9 -4.3 2.9 100 0.0 E 30 32 16 17 1024.3 - 0.4
19/04:40am 2.8 -4.4 2.8 100 0.0 E 30 33 16 18 1024.1 - 0.4
19/04:30am 2.7 -4.9 2.7 100 0.0 E 32 33 17 18 1024.2 - 0.4
19/04:20am 2.5 -5.2 2.5 100 0.0 E 32 33 17 18 1024.3 - 0.4
19/04:10am 2.4 -5.3 2.4 100 0.0 E 32 35 17 19 1024.4 - 0.4
19/04:00am 2.3 -5.4 2.3 100 0.0 E 32 35 17 19 1024.5 - 0.2
19/03:50am 2.2 -5.1 2.2 100 0.0 E 30 32 16 17 1024.7 - 0.2
19/03:40am 2.1 -5.6 2.1 100 0.0 E 32 33 17 18 1024.7 - 0.0
19/03:30am 2.0 -5.9 2.0 100 0.0 E 33 37 18 20 1024.6 - 0.0
19/03:20am 2.0 -5.4 2.0 100 0.0 E 30 33 16 18 1024.7 - 0.0
19/03:10am 1.8 -6.2 1.8 100 0.0 E 33 35 18 19 1024.7 - 0.0
19/03:00am 1.8 -6.0 1.8 100 0.0 E 32 33 17 18 1024.8 - 0.0
19/02:50am 1.7 -5.3 1.7 100 0.0 E 28 33 15 18 1024.8 - 0.0
19/02:40am 1.6 -5.8 1.6 100 0.0 E 30 33 16 18 1024.9 - 0.0
19/02:30am 1.5 -6.3 1.5 100 0.0 E 32 33 17 18 1025.0 - 0.0
19/02:20am 1.4 -7.0 1.4 100 0.0 E 35 37 19 20 1025.2 - 0.0
19/02:10am 1.3 -7.5 1.3 100 0.0 E 37 39 20 21 1025.2 - 0.0
19/02:00am 1.3 -7.5 1.3 100 0.0 E 37 39 20 21 1025.2 - 0.0
19/01:50am 1.4 -7.0 1.4 100 0.0 E 35 41 19 22 1025.4 - 0.0
19/01:40am 1.5 -6.9 1.5 100 0.0 E 35 41 19 22 1025.8 - 0.0
19/01:30am 1.7 -6.3 1.7 100 0.0 E 33 37 18 20 1025.8 - 0.0
19/01:20am 1.7 -7.0 1.7 100 0.0 E 37 39 20 21 1025.7 - 0.0
19/01:10am 1.7 -6.3 1.7 100 0.0 E 33 37 18 20 1025.8 - 0.0
19/01:00am 1.7 -6.7 1.7 100 0.0 E 35 39 19 21 1025.9 - 0.0
19/12:50am 1.7 -6.3 1.7 100 0.0 E 33 37 18 20 1026.0 - 0.0
19/12:40am 1.7 -6.3 1.7 100 0.0 E 33 37 18 20 1026.1 - 0.0
19/12:30am 1.8 -6.2 1.7 99 0.0 E 33 35 18 19 1026.0 - 0.0
19/12:20am 1.8 -6.2 1.7 99 0.0 E 33 37 18 20 1026.0 - 0.0
19/12:10am 1.8 -6.2 1.7 99 0.0 E 33 37 18 20 1025.9 - 0.0
19/12:00am 1.8 -6.6 1.7 99 0.0 E 35 41 19 22 1026.2 - 0.0
 
Date/Time
EST
Temp
°C
App
Temp
°C
Dew
Point
°C
Rel
Hum
%
Delta-T
°C
Wind Press
QNH
hPa
Press
MSL
hPa
Rain since
9am
mm
Dir  Spd
km/h
Gust
km/h
Spd
kts
Gust
kts
18/11:50pm 1.7 -6.3 1.6 99 0.0 E 33 37 18 20 1026.3 - 0.0
18/11:40pm 1.7 -6.7 1.5 99 0.1 E 35 39 19 21 1026.3 - 0.0
18/11:30pm 1.7 -6.3 1.4 98 0.1 E 33 35 18 19 1026.3 - 0.0
18/11:20pm 1.7 -6.7 1.3 97 0.2 E 35 39 19 21 1026.5 - 0.0

Other formats

Comma delimited format used in spreadsheet applications
http://www.bom.gov.au/fwo/IDT60801/IDT60801.99151.axf

JavaScript Object Notation format (JSON) in row-major order
http://www.bom.gov.au/fwo/IDT60801/IDT60801.99151.json

Data quality

Most of these data are generated automatically and are frequently updated. Quality checks on data are not normally performed. It is possible for incorrect values to appear. Refer to information at About Latest Weather Observations and please check the disclaimer before using these data.